createdAt,value
2022-10-13T00:01:51.015Z,18.45
2022-10-13T00:04:18.384Z,16.45
2022-10-13T00:06:45.769Z,22.00
2022-10-13T00:12:39.960Z,24.08
2022-10-13T00:15:12.275Z,18.17
2022-10-13T00:17:40.482Z,20.35
2022-10-13T00:20:09.886Z,20.77
2022-10-13T00:22:37.579Z,21.90
2022-10-13T00:25:05.483Z,25.65
2022-10-13T00:27:32.828Z,18.73
2022-10-13T00:30:00.232Z,17.80
2022-10-13T00:32:27.689Z,24.20
2022-10-13T00:34:55.075Z,21.40
2022-10-13T00:37:22.451Z,21.02
2022-10-13T00:39:49.927Z,20.23
2022-10-13T00:42:18.252Z,21.55
2022-10-13T00:45:17.422Z,20.60
2022-10-13T00:47:49.952Z,18.67
2022-10-13T00:50:23.767Z,19.35
2022-10-13T00:52:57.187Z,25.25
2022-10-13T00:55:30.856Z,23.20
2022-10-13T00:58:05.234Z,21.30
2022-10-13T01:00:34.347Z,23.05
2022-10-13T01:03:02.698Z,20.48
2022-10-13T01:05:30.999Z,19.60
2022-10-13T01:08:00.975Z,25.52
2022-10-13T01:10:57.315Z,25.30
2022-10-13T01:13:38.033Z,19.15
2022-10-13T01:16:21.052Z,22.80
2022-10-13T01:18:52.775Z,25.42
2022-10-13T01:21:43.522Z,19.90
2022-10-13T01:24:32.409Z,20.60
2022-10-13T01:27:14.003Z,23.48
2022-10-13T01:30:12.456Z,28.60
2022-10-13T01:33:14.778Z,22.58
2022-10-13T01:36:15.235Z,24.70
2022-10-13T01:38:59.619Z,20.20
2022-10-13T01:41:37.551Z,18.90
2022-10-13T01:44:17.337Z,19.13
2022-10-13T01:46:54.715Z,29.13
2022-10-13T01:49:27.440Z,24.85
2022-10-13T01:52:00.175Z,22.52
2022-10-13T01:54:27.507Z,23.20
2022-10-13T01:56:57.280Z,21.48
2022-10-13T01:59:27.558Z,20.48
2022-10-13T02:02:18.655Z,21.23
2022-10-13T02:05:08.640Z,19.60
2022-10-13T02:07:46.819Z,19.45
2022-10-13T02:12:59.328Z,20.33
2022-10-13T02:15:41.286Z,22.45
2022-10-13T02:18:12.255Z,25.02
2022-10-13T02:20:41.857Z,27.98
2022-10-13T02:23:12.505Z,22.98
2022-10-13T02:25:40.523Z,21.98
2022-10-13T02:28:08.417Z,19.02
2022-10-13T02:30:43.752Z,20.67
2022-10-13T02:33:12.166Z,22.10
2022-10-13T02:35:40.045Z,27.08
2022-10-13T02:38:07.643Z,26.55
2022-10-13T02:40:35.128Z,21.95
2022-10-13T02:43:02.630Z,24.27
2022-10-13T02:45:30.013Z,22.65
2022-10-13T02:47:58.122Z,24.60
2022-10-13T02:50:25.620Z,20.58
2022-10-13T02:52:53.870Z,24.08
2022-10-13T02:55:21.493Z,23.48
2022-10-13T02:57:56.847Z,17.85
2022-10-13T03:00:24.525Z,25.13
2022-10-13T03:02:51.904Z,22.85
2022-10-13T03:05:19.336Z,22.00
2022-10-13T03:07:46.736Z,21.98
2022-10-13T03:10:14.115Z,24.05
2022-10-13T03:12:41.452Z,23.42
2022-10-13T03:15:09.164Z,20.55
2022-10-13T03:17:36.556Z,25.20
2022-10-13T03:20:04.914Z,23.58
2022-10-13T03:22:33.052Z,21.65
2022-10-13T03:25:00.881Z,20.85
2022-10-13T03:27:28.262Z,24.38
2022-10-13T03:29:55.630Z,25.23
2022-10-13T03:32:23.222Z,26.60
2022-10-13T03:34:51.721Z,27.17
2022-10-13T03:37:19.112Z,22.50
2022-10-13T03:39:46.541Z,23.35
2022-10-13T03:42:14.127Z,23.58
2022-10-13T03:44:41.728Z,19.92
2022-10-13T03:47:09.105Z,20.67
2022-10-13T03:49:39.017Z,21.13
2022-10-13T03:52:06.815Z,21.10
2022-10-13T03:54:34.251Z,26.50
2022-10-13T03:57:03.233Z,29.65
2022-10-13T03:59:36.354Z,30.63
2022-10-13T04:02:04.621Z,25.23
2022-10-13T04:04:32.033Z,25.15
2022-10-13T04:06:59.413Z,25.10
2022-10-13T04:09:27.090Z,21.58
2022-10-13T04:11:54.459Z,24.90
2022-10-13T04:14:21.896Z,28.63
2022-10-13T04:16:49.247Z,22.77
2022-10-13T04:19:17.004Z,23.55
2022-10-13T04:21:44.922Z,22.63
2022-10-13T04:24:13.601Z,26.30
2022-10-13T04:26:41.562Z,24.58
2022-10-13T04:29:11.522Z,22.23
2022-10-13T04:31:40.579Z,21.77
2022-10-13T04:34:08.488Z,23.25
2022-10-13T04:36:35.998Z,30.52
2022-10-13T04:39:03.929Z,27.08
2022-10-13T04:41:33.647Z,21.65
2022-10-13T04:44:02.513Z,27.58
2022-10-13T04:46:29.939Z,21.98
2022-10-13T04:48:57.811Z,23.67
2022-10-13T04:51:33.040Z,20.73
2022-10-13T04:54:02.070Z,30.25
2022-10-13T04:56:29.979Z,26.98
2022-10-13T04:59:05.781Z,24.30
2022-10-13T05:01:34.622Z,26.65
2022-10-13T05:04:04.430Z,20.20
2022-10-13T05:06:58.885Z,23.35
2022-10-13T05:09:27.472Z,23.73
2022-10-13T05:11:55.253Z,25.02
2022-10-13T05:14:23.262Z,24.77
2022-10-13T05:16:50.666Z,25.42
2022-10-13T05:19:18.049Z,22.85
2022-10-13T05:21:45.375Z,24.80
2022-10-13T05:24:13.438Z,20.70
2022-10-13T05:26:41.965Z,26.48
2022-10-13T05:29:09.419Z,22.75
2022-10-13T05:31:36.955Z,20.33
2022-10-13T05:34:04.345Z,21.48
2022-10-13T05:36:34.262Z,24.85
2022-10-13T05:39:04.636Z,22.33
2022-10-13T05:41:32.567Z,22.52
2022-10-13T05:44:03.525Z,23.10
2022-10-13T05:46:30.990Z,22.10
2022-10-13T05:48:58.588Z,18.17
2022-10-13T05:51:31.662Z,19.02
2022-10-13T05:54:06.606Z,23.77
2022-10-13T05:56:41.512Z,23.23
2022-10-13T05:59:12.274Z,22.60
2022-10-13T06:01:41.124Z,29.13
2022-10-13T06:04:15.127Z,35.97
2022-10-13T06:06:47.366Z,23.60
2022-10-13T06:09:14.871Z,19.48
2022-10-13T06:11:42.632Z,25.48
2022-10-13T06:14:10.136Z,26.35
2022-10-13T06:16:37.645Z,23.45
2022-10-13T06:19:06.208Z,24.52
2022-10-13T06:21:36.573Z,28.88
2022-10-13T06:24:04.168Z,20.55
2022-10-13T06:26:31.562Z,27.08
2022-10-13T06:28:59.947Z,24.52
2022-10-13T06:31:28.531Z,25.70
2022-10-13T06:33:55.983Z,25.27
2022-10-13T06:36:23.352Z,23.85
2022-10-13T06:38:51.263Z,19.83
2022-10-13T06:41:22.063Z,23.58
2022-10-13T06:43:49.505Z,21.45
2022-10-13T06:46:17.517Z,30.27
2022-10-13T06:48:44.873Z,23.17
2022-10-13T06:51:12.295Z,26.23
2022-10-13T06:53:39.699Z,30.95
2022-10-13T06:56:07.903Z,26.48
2022-10-13T06:58:36.358Z,29.20
2022-10-13T07:01:05.522Z,25.52
2022-10-13T07:03:33.166Z,23.23
2022-10-13T07:06:02.291Z,32.50
2022-10-13T07:08:29.789Z,27.80
2022-10-13T07:10:57.732Z,30.38
2022-10-13T07:13:25.363Z,25.90
2022-10-13T07:15:52.744Z,25.73
2022-10-13T07:18:20.197Z,25.80
2022-10-13T07:20:47.582Z,24.15
2022-10-13T07:23:14.988Z,28.55
2022-10-13T07:25:42.398Z,28.35
2022-10-13T07:28:09.782Z,28.70
2022-10-13T07:30:39.455Z,28.17
2022-10-13T07:33:07.055Z,29.13
2022-10-13T07:35:34.621Z,32.58
2022-10-13T07:38:02.005Z,21.73
2022-10-13T07:40:29.461Z,23.42
2022-10-13T07:42:57.605Z,24.77
2022-10-13T07:45:25.480Z,23.48
2022-10-13T07:47:52.918Z,27.55
2022-10-13T07:50:20.679Z,32.53
2022-10-13T07:52:48.197Z,24.05
2022-10-13T07:55:15.782Z,27.95
2022-10-13T07:57:43.255Z,30.20
2022-10-13T08:00:11.246Z,30.77
2022-10-13T08:02:41.526Z,35.72
2022-10-13T08:05:09.112Z,33.10
2022-10-13T08:07:39.221Z,26.05
2022-10-13T08:10:07.349Z,36.22
2022-10-13T08:12:38.258Z,29.60
2022-10-13T08:15:07.118Z,22.85
2022-10-13T08:17:34.554Z,28.80
2022-10-13T08:20:01.905Z,31.80
2022-10-13T08:28:36.336Z,30.92
2022-10-13T08:31:04.335Z,37.10
2022-10-13T08:33:31.733Z,33.42
2022-10-13T08:35:59.098Z,30.55
2022-10-13T08:38:27.071Z,33.75
2022-10-13T08:40:54.519Z,32.03
2022-10-13T08:43:24.416Z,38.63
2022-10-13T08:45:56.600Z,35.25
2022-10-13T08:48:30.076Z,34.63
2022-10-13T08:51:01.852Z,31.65
2022-10-13T08:53:34.332Z,33.22
2022-10-13T08:56:15.099Z,33.40
2022-10-13T08:58:43.462Z,28.40
2022-10-13T09:01:18.176Z,27.70
2022-10-13T09:03:48.242Z,31.02
2022-10-13T09:06:27.162Z,24.52
2022-10-13T09:09:03.761Z,28.48
2022-10-13T09:11:37.929Z,26.70
2022-10-13T09:14:08.126Z,30.30
2022-10-13T09:16:39.366Z,24.00
2022-10-13T09:19:36.651Z,32.15
2022-10-13T09:22:27.938Z,25.92
2022-10-13T09:25:07.490Z,24.75
2022-10-13T09:27:55.025Z,25.17
2022-10-13T09:30:40.676Z,28.58
2022-10-13T09:33:13.739Z,30.88
2022-10-13T09:35:43.029Z,31.15
2022-10-13T09:38:25.113Z,28.95
2022-10-13T09:41:13.110Z,25.65
2022-10-13T09:43:46.614Z,24.10
2022-10-13T09:46:36.166Z,26.50
2022-10-13T09:49:23.111Z,32.95
2022-10-13T09:51:50.987Z,27.23
2022-10-13T09:54:28.533Z,35.63
2022-10-13T09:57:11.211Z,25.67
2022-10-13T09:59:48.433Z,31.65
2022-10-13T10:02:38.363Z,28.30
2022-10-13T10:05:16.881Z,25.35
2022-10-13T10:07:47.154Z,23.42
2022-10-13T10:10:35.255Z,24.15
2022-10-13T10:13:05.739Z,21.40
2022-10-13T10:15:58.441Z,25.65
2022-10-13T10:21:06.497Z,27.50
2022-10-13T10:23:48.862Z,24.47
2022-10-13T10:26:43.052Z,30.50
2022-10-13T10:29:23.915Z,30.88
2022-10-13T10:32:00.100Z,23.73
2022-10-13T10:34:33.116Z,28.02
2022-10-13T10:37:25.425Z,25.25
2022-10-13T10:40:22.172Z,27.35
2022-10-13T10:42:58.591Z,31.38
2022-10-13T10:45:35.731Z,25.63
2022-10-13T10:48:26.982Z,25.58
2022-10-13T10:50:54.796Z,27.17
2022-10-13T10:53:56.731Z,38.13
2022-10-13T10:56:40.823Z,37.85
2022-10-13T10:59:29.628Z,26.88
2022-10-13T11:02:27.694Z,35.70
2022-10-13T11:04:55.320Z,27.30
2022-10-13T11:07:22.707Z,27.33
2022-10-13T11:09:50.569Z,26.83
2022-10-13T11:12:21.489Z,30.65
2022-10-13T11:14:55.360Z,28.20
2022-10-13T11:17:30.427Z,33.05
2022-10-13T11:19:58.865Z,36.30
2022-10-13T11:22:28.559Z,29.60
2022-10-13T11:24:58.879Z,28.08
2022-10-13T11:27:46.354Z,25.77
2022-10-13T11:30:44.038Z,22.70
2022-10-13T11:33:39.473Z,30.27
2022-10-13T11:36:39.976Z,28.95
2022-10-13T11:39:28.706Z,29.73
2022-10-13T11:42:33.508Z,25.05
2022-10-13T11:45:32.265Z,27.52
2022-10-13T11:48:26.505Z,29.73
2022-10-13T11:51:15.421Z,30.33
2022-10-13T11:53:53.546Z,31.52
2022-10-13T11:56:39.392Z,23.88
2022-10-13T11:59:23.604Z,27.65
2022-10-13T12:01:55.716Z,28.15
2022-10-13T12:04:25.207Z,35.08
2022-10-13T12:06:57.233Z,28.10
2022-10-13T12:09:25.030Z,28.52
2022-10-13T12:11:58.688Z,27.67
2022-10-13T12:14:40.807Z,25.85
2022-10-13T12:17:27.141Z,28.98
2022-10-13T12:20:00.529Z,25.15
2022-10-13T12:22:29.482Z,31.13
2022-10-13T12:25:07.040Z,23.52
2022-10-13T12:27:52.536Z,26.63
2022-10-13T12:30:32.015Z,28.52
2022-10-13T12:33:01.137Z,24.13
2022-10-13T12:35:33.834Z,26.27
2022-10-13T12:38:03.889Z,25.65
2022-10-13T12:40:34.647Z,24.75
2022-10-13T12:43:05.130Z,23.95
2022-10-13T12:45:34.895Z,23.52
2022-10-13T12:48:02.372Z,26.42
2022-10-13T12:50:37.868Z,25.23
2022-10-13T12:53:10.436Z,27.95
2022-10-13T12:55:59.009Z,30.77
2022-10-13T12:58:36.853Z,26.50
2022-10-13T13:01:21.236Z,28.98
2022-10-13T13:03:56.125Z,37.03
2022-10-13T13:06:32.556Z,29.67
2022-10-13T13:09:21.797Z,23.35
2022-10-13T13:12:02.354Z,22.35
2022-10-13T13:14:37.582Z,23.83
2022-10-13T13:17:08.559Z,27.33
2022-10-13T13:19:36.647Z,25.35
2022-10-13T13:22:05.867Z,25.45
2022-10-13T13:24:41.363Z,30.90
2022-10-13T13:27:26.657Z,25.10
2022-10-13T13:32:25.188Z,22.50
2022-10-13T13:34:52.606Z,21.42
2022-10-13T13:37:34.171Z,27.65
2022-10-13T13:40:02.177Z,30.63
2022-10-13T13:42:29.783Z,26.48
2022-10-13T13:44:57.226Z,24.80
2022-10-13T13:47:27.313Z,24.00
2022-10-13T13:49:57.192Z,21.42
2022-10-13T13:52:25.662Z,23.83
2022-10-13T13:54:53.108Z,26.90
2022-10-13T13:57:20.900Z,23.70
2022-10-13T13:59:48.557Z,25.23
2022-10-13T14:02:21.252Z,26.92
2022-10-13T14:04:48.789Z,32.88
2022-10-13T14:07:17.917Z,24.52
2022-10-13T14:09:46.739Z,31.45
2022-10-13T14:12:14.177Z,29.50
2022-10-13T14:14:41.579Z,28.48
2022-10-13T14:17:10.582Z,36.10
2022-10-13T14:19:37.995Z,29.67
2022-10-13T14:22:20.057Z,27.85
2022-10-13T14:24:48.406Z,32.20
2022-10-13T14:27:15.861Z,26.65
2022-10-13T14:29:43.475Z,28.52
2022-10-13T14:32:13.591Z,28.20
2022-10-13T14:34:40.988Z,27.05
2022-10-13T14:37:08.754Z,29.77
2022-10-13T14:39:36.225Z,27.35
2022-10-13T14:42:03.865Z,24.63
2022-10-13T14:44:31.269Z,30.10
2022-10-13T14:46:58.615Z,28.45
2022-10-13T14:49:26.372Z,31.60
2022-10-13T14:51:53.969Z,33.78
2022-10-13T14:54:21.618Z,36.83
2022-10-13T14:56:49.065Z,33.10
2022-10-13T14:59:16.591Z,27.23
2022-10-13T15:01:46.125Z,37.22
2022-10-13T15:04:13.497Z,31.20
2022-10-13T15:06:40.904Z,33.10
2022-10-13T15:11:41.594Z,30.58
2022-10-13T15:14:09.890Z,37.90
2022-10-13T15:16:37.976Z,36.70
2022-10-13T15:19:05.915Z,38.28
2022-10-13T15:21:33.372Z,30.55
2022-10-13T15:24:01.881Z,31.23
2022-10-13T15:26:29.689Z,34.30
2022-10-13T15:28:57.199Z,37.13
2022-10-13T15:31:24.806Z,37.15
2022-10-13T15:33:53.730Z,39.00
2022-10-13T15:36:22.435Z,41.67
2022-10-13T15:38:51.145Z,33.45
2022-10-13T15:41:19.826Z,39.03
2022-10-13T15:43:47.914Z,39.10
2022-10-13T15:46:21.641Z,33.80
2022-10-13T15:48:50.724Z,38.20
2022-10-13T15:51:21.146Z,40.65
2022-10-13T15:53:49.033Z,50.70
2022-10-13T15:56:17.076Z,39.15
2022-10-13T15:58:45.480Z,41.78
2022-10-13T16:01:14.031Z,44.35
2022-10-13T16:03:41.554Z,40.10
2022-10-13T16:06:11.080Z,42.83
2022-10-13T16:08:39.916Z,44.25
2022-10-13T16:11:11.056Z,40.13
2022-10-13T16:13:39.533Z,40.33
2022-10-13T16:16:07.721Z,43.33
2022-10-13T16:18:37.353Z,38.88
2022-10-13T16:21:31.061Z,37.85
2022-10-13T16:23:59.533Z,39.83
2022-10-13T16:26:27.925Z,37.28
2022-10-13T16:28:56.790Z,35.15
2022-10-13T16:31:24.431Z,38.03
2022-10-13T16:33:51.842Z,43.30
2022-10-13T16:36:20.300Z,44.72
2022-10-13T16:38:53.003Z,36.67
2022-10-13T16:41:20.963Z,40.55
2022-10-13T16:43:48.785Z,39.53
2022-10-13T16:46:19.181Z,39.60
2022-10-13T16:48:47.547Z,44.53
2022-10-13T16:51:32.891Z,41.22
2022-10-13T16:54:04.255Z,43.85
2022-10-13T16:56:32.918Z,60.15
2022-10-13T16:59:02.513Z,32.45
2022-10-13T17:01:31.608Z,41.10
2022-10-13T17:03:59.619Z,36.35
2022-10-13T17:06:28.972Z,35.33
2022-10-13T17:09:00.626Z,41.97
2022-10-13T17:11:30.239Z,38.80
2022-10-13T17:13:58.995Z,40.28
2022-10-13T17:16:31.410Z,38.40
2022-10-13T17:18:59.506Z,47.03
2022-10-13T17:21:47.240Z,40.25
2022-10-13T17:24:16.830Z,45.67
2022-10-13T17:26:44.441Z,40.97
2022-10-13T17:29:12.027Z,41.30
2022-10-13T17:31:39.442Z,41.50
2022-10-13T17:34:09.202Z,44.50
2022-10-13T17:36:36.574Z,38.55
2022-10-13T17:41:40.743Z,42.35
2022-10-13T17:44:08.205Z,40.78
2022-10-13T17:46:37.942Z,39.35
2022-10-13T17:49:09.565Z,37.13
2022-10-13T17:51:37.051Z,40.78
2022-10-13T17:54:05.160Z,35.03
2022-10-13T17:56:32.874Z,44.75
2022-10-13T17:59:01.984Z,46.40
2022-10-13T18:01:32.959Z,38.83
2022-10-13T18:04:03.697Z,41.85
2022-10-13T18:06:37.995Z,43.30
2022-10-13T18:09:12.181Z,39.35
2022-10-13T18:11:41.771Z,40.95
2022-10-13T18:14:10.830Z,37.63
2022-10-13T18:16:42.586Z,38.42
2022-10-13T18:19:13.721Z,42.42
2022-10-13T18:21:41.268Z,33.17
2022-10-13T18:24:09.961Z,35.35
2022-10-13T18:26:37.578Z,36.95
2022-10-13T18:29:06.877Z,33.88
2022-10-13T18:31:36.681Z,34.97
2022-10-13T18:34:06.565Z,39.38
2022-10-13T18:36:47.860Z,38.95
2022-10-13T18:39:18.093Z,33.63
2022-10-13T18:41:49.927Z,41.85
2022-10-13T18:44:17.609Z,46.53
2022-10-13T18:46:45.314Z,40.17
2022-10-13T18:49:14.517Z,37.92
2022-10-13T18:51:44.235Z,35.90
2022-10-13T18:54:12.039Z,34.72
2022-10-13T18:56:39.606Z,35.58
2022-10-13T18:59:08.935Z,34.28
2022-10-13T19:01:38.209Z,35.65
2022-10-13T19:04:06.623Z,44.67
2022-10-13T19:06:35.501Z,56.97
2022-10-13T19:09:06.995Z,41.45
2022-10-13T19:11:37.442Z,49.08
2022-10-13T19:14:07.058Z,49.40
2022-10-13T19:16:37.423Z,40.08
2022-10-13T19:19:05.845Z,42.83
2022-10-13T19:21:33.537Z,40.25
2022-10-13T19:24:01.665Z,40.22
2022-10-13T19:26:32.297Z,45.10
2022-10-13T19:29:03.614Z,43.00
2022-10-13T19:31:32.343Z,45.65
2022-10-13T19:34:01.824Z,44.35
2022-10-13T19:36:33.798Z,45.03
2022-10-13T19:39:07.491Z,44.17
2022-10-13T19:41:35.176Z,48.17
2022-10-13T19:44:03.109Z,42.75
2022-10-13T19:46:44.634Z,41.97
2022-10-13T19:49:13.498Z,45.83
2022-10-13T19:51:45.946Z,35.97
2022-10-13T19:54:14.078Z,44.08
2022-10-13T19:56:47.526Z,41.63
2022-10-13T19:59:15.595Z,46.00
2022-10-13T20:01:43.603Z,48.78
2022-10-13T20:04:15.500Z,39.17
2022-10-13T20:06:44.680Z,38.08
2022-10-13T20:09:12.506Z,45.50
2022-10-13T20:11:40.090Z,35.70
2022-10-13T20:14:07.604Z,38.88
2022-10-13T20:16:36.652Z,41.13
2022-10-13T20:19:04.287Z,45.05
2022-10-13T20:21:31.860Z,63.35
2022-10-13T20:23:59.463Z,38.95
2022-10-13T20:26:27.182Z,38.25
2022-10-13T20:28:55.234Z,42.55
2022-10-13T20:31:24.004Z,43.80
2022-10-13T20:33:55.992Z,44.65
2022-10-13T20:36:25.374Z,38.60
2022-10-13T20:38:53.095Z,44.83
2022-10-13T20:41:24.811Z,45.13
2022-10-13T20:43:54.082Z,41.80
2022-10-13T20:46:23.682Z,42.97
2022-10-13T20:49:22.146Z,39.55
2022-10-13T20:51:40.852Z,42.58
2022-10-13T20:54:08.846Z,45.25
2022-10-13T20:56:36.753Z,43.63
2022-10-13T20:59:05.975Z,47.65
2022-10-13T21:01:34.489Z,39.63
2022-10-13T21:04:02.028Z,39.22
2022-10-13T21:06:29.572Z,44.60
2022-10-13T21:08:59.154Z,40.05
2022-10-13T21:11:26.625Z,41.90
2022-10-13T21:13:54.110Z,46.47
2022-10-13T21:16:27.133Z,41.03
2022-10-13T21:18:56.198Z,44.88
2022-10-13T21:21:34.835Z,46.47
2022-10-13T21:24:05.006Z,37.35
2022-10-13T21:26:33.274Z,43.53
2022-10-13T21:29:01.723Z,42.33
2022-10-13T21:31:29.886Z,47.00
2022-10-13T21:33:57.997Z,48.58
2022-10-13T21:36:27.764Z,43.45
2022-10-13T21:38:58.503Z,43.35
2022-10-13T21:41:26.854Z,48.05
2022-10-13T21:43:54.624Z,45.03
2022-10-13T21:46:27.867Z,48.67
2022-10-13T21:48:59.694Z,48.03
2022-10-13T21:51:30.048Z,44.10
2022-10-13T21:54:00.302Z,45.63
2022-10-13T21:56:31.510Z,42.28
2022-10-13T21:59:00.236Z,46.83
2022-10-13T22:01:28.052Z,43.17
2022-10-13T22:04:00.874Z,42.25
2022-10-13T22:06:30.230Z,47.97
2022-10-13T22:08:59.130Z,47.97
2022-10-13T22:11:30.090Z,46.50
2022-10-13T22:13:58.150Z,46.47
2022-10-13T22:16:29.304Z,45.17
2022-10-13T22:18:57.877Z,45.97
2022-10-13T22:21:31.086Z,41.97
2022-10-13T22:24:01.604Z,43.67
2022-10-13T22:26:30.698Z,42.90
2022-10-13T22:28:59.748Z,43.78
2022-10-13T22:31:27.738Z,40.70
2022-10-13T22:33:55.349Z,46.78
2022-10-13T22:36:24.349Z,49.50
2022-10-13T22:38:54.284Z,40.70
2022-10-13T22:41:22.539Z,43.13
2022-10-13T22:43:55.430Z,41.38
2022-10-13T22:46:26.237Z,43.15
2022-10-13T22:48:54.255Z,44.00
2022-10-13T22:51:24.001Z,41.92
2022-10-13T22:53:51.746Z,46.13
2022-10-13T22:56:24.267Z,42.85
2022-10-13T22:59:02.391Z,43.65
2022-10-13T23:01:29.839Z,47.50
2022-10-13T23:03:58.557Z,42.25
2022-10-13T23:06:30.826Z,48.25
2022-10-13T23:09:02.548Z,45.08
2022-10-13T23:11:29.975Z,41.15
2022-10-13T23:13:57.641Z,42.70
2022-10-13T23:16:25.991Z,39.67
2022-10-13T23:18:54.205Z,46.35
2022-10-13T23:21:27.253Z,38.30
2022-10-13T23:23:59.729Z,42.58
2022-10-13T23:26:28.521Z,45.80
2022-10-13T23:28:57.189Z,44.03
2022-10-13T23:31:26.151Z,46.30
2022-10-13T23:33:54.208Z,46.03
2022-10-13T23:36:24.053Z,43.35
2022-10-13T23:39:00.067Z,50.22
2022-10-13T23:41:28.110Z,48.42
2022-10-13T23:43:55.665Z,47.13
2022-10-13T23:46:24.863Z,43.10
2022-10-13T23:48:52.643Z,46.03
2022-10-13T23:51:23.138Z,43.10
2022-10-13T23:53:51.204Z,45.97
2022-10-13T23:56:19.153Z,41.35
2022-10-13T23:58:46.607Z,51.63
